createdAt,value
2019-02-25T00:03:29.053Z,103871.19
2019-02-25T00:06:11.331Z,103870.22
2019-02-25T00:08:46.496Z,103868.93
2019-02-25T00:11:21.502Z,103859.52
2019-02-25T00:13:56.364Z,103855.85
2019-02-25T00:16:34.541Z,103854.92
2019-02-25T00:19:09.386Z,103858.45
2019-02-25T00:21:50.726Z,103861.38
2019-02-25T00:24:25.606Z,103857.97
2019-02-25T00:27:00.623Z,103855.38
2019-02-25T00:29:35.598Z,103850.89
2019-02-25T00:32:11.438Z,103854.30
2019-02-25T00:34:46.305Z,103860.67
2019-02-25T00:37:21.203Z,103858.19
2019-02-25T00:39:56.180Z,103859.38
2019-02-25T00:42:31.119Z,103866.56
2019-02-25T00:48:47.466Z,103860.30
2019-02-25T00:51:22.467Z,103860.89
2019-02-25T01:00:14.290Z,103872.31
2019-02-25T01:06:08.938Z,103870.55
2019-02-25T01:09:08.558Z,103861.58
2019-02-25T01:12:07.614Z,103856.66
2019-02-25T01:14:58.621Z,103858.99
2019-02-25T01:24:27.813Z,103856.73
2019-02-25T01:30:28.788Z,103849.34
2019-02-25T01:33:03.692Z,103852.88
2019-02-25T01:36:00.059Z,103853.44
2019-02-25T01:38:35.028Z,103852.39
2019-02-25T01:41:16.141Z,103847.53
2019-02-25T01:44:09.197Z,103839.29
2019-02-25T01:50:59.006Z,103844.46
2019-02-25T01:53:45.600Z,103845.98
2019-02-25T01:56:31.281Z,103847.26
2019-02-25T01:59:29.341Z,103843.48
2019-02-25T02:02:17.462Z,103845.15
2019-02-25T02:04:52.353Z,103846.05
2019-02-25T02:07:28.148Z,103842.73
2019-02-25T02:10:03.992Z,103843.14
2019-02-25T02:12:53.206Z,103839.27
2019-02-25T02:15:42.287Z,103839.67
2019-02-25T02:18:31.214Z,103835.78
2019-02-25T02:21:28.455Z,103844.03
2019-02-25T02:24:17.040Z,103842.95
2019-02-25T02:27:06.790Z,103841.09
2019-02-25T02:29:56.221Z,103849.50
2019-02-25T02:32:32.007Z,103848.25
2019-02-25T02:35:29.893Z,103851.81
2019-02-25T02:38:07.034Z,103851.30
2019-02-25T02:40:55.981Z,103849.02
2019-02-25T02:43:46.070Z,103847.02
2019-02-25T02:46:44.702Z,103843.27
2019-02-25T02:49:33.514Z,103848.91
2019-02-25T02:52:22.352Z,103845.27
2019-02-25T02:55:13.325Z,103837.00
2019-02-25T02:58:05.782Z,103846.00
2019-02-25T03:00:55.161Z,103848.41
2019-02-25T03:03:45.275Z,103850.77
2019-02-25T03:06:36.131Z,103846.89
2019-02-25T03:09:29.277Z,103845.09
2019-02-25T03:12:06.119Z,103849.90
2019-02-25T03:15:15.595Z,103848.62
2019-02-25T03:18:13.669Z,103849.95
2019-02-25T03:21:03.602Z,103845.84
2019-02-25T03:23:39.864Z,103834.56
2019-02-25T03:27:06.575Z,103838.39
2019-02-25T03:36:07.935Z,103830.87
2019-02-25T03:38:43.706Z,103827.92
2019-02-25T03:41:32.787Z,103827.25
2019-02-25T03:44:33.338Z,103824.41
2019-02-25T03:47:08.237Z,103833.06
2019-02-25T03:49:43.139Z,103823.34
2019-02-25T03:52:18.911Z,103819.18
2019-02-25T03:54:54.778Z,103816.33
2019-02-25T03:57:29.733Z,103819.81
2019-02-25T04:03:58.098Z,103824.04
2019-02-25T04:10:09.928Z,103827.49
2019-02-25T04:12:45.865Z,103826.09
2019-02-25T04:15:36.979Z,103824.88
2019-02-25T04:18:14.305Z,103821.74
2019-02-25T04:20:51.656Z,103825.30
2019-02-25T04:23:28.999Z,103824.45
2019-02-25T04:26:06.366Z,103817.64
2019-02-25T04:28:43.676Z,103823.59
2019-02-25T04:31:19.902Z,103830.73
2019-02-25T04:33:55.795Z,103831.86
2019-02-25T04:36:31.547Z,103831.11
2019-02-25T04:40:08.279Z,103833.19
2019-02-25T04:43:06.270Z,103836.52
2019-02-25T04:50:34.187Z,103838.73
2019-02-25T04:53:09.117Z,103837.14
2019-02-25T04:55:44.010Z,103831.12
2019-02-25T04:59:15.276Z,103826.31
2019-02-25T05:10:27.911Z,103820.47
2019-02-25T05:13:19.726Z,103815.91
2019-02-25T05:19:31.363Z,103817.34
2019-02-25T05:30:03.629Z,103830.16
2019-02-25T05:32:47.623Z,103821.62
2019-02-25T05:35:23.411Z,103830.41
2019-02-25T05:42:35.904Z,103823.64
2019-02-25T05:45:11.026Z,103826.66
2019-02-25T05:51:16.224Z,103832.17
2019-02-25T05:53:54.046Z,103838.16
2019-02-25T05:56:28.817Z,103847.55
2019-02-25T05:59:51.162Z,103852.51
2019-02-25T06:03:12.335Z,103859.17
2019-02-25T06:09:35.375Z,103875.20
2019-02-25T06:12:57.373Z,103876.45
2019-02-25T06:15:32.468Z,103882.49
2019-02-25T06:18:10.374Z,103892.16
2019-02-25T06:23:43.261Z,103894.17
2019-02-25T06:26:33.166Z,103899.20
2019-02-25T06:29:33.853Z,103902.65
2019-02-25T06:32:09.563Z,103911.02
2019-02-25T06:34:45.359Z,103907.91
2019-02-25T06:37:33.921Z,103912.56
2019-02-25T06:40:10.919Z,103910.10
2019-02-25T06:42:47.084Z,103910.10
2019-02-25T06:45:23.059Z,103905.84
2019-02-25T06:47:57.971Z,103909.15
2019-02-25T06:50:33.047Z,103916.47
2019-02-25T06:53:08.444Z,103917.70
2019-02-25T06:55:43.599Z,103920.53
2019-02-25T06:58:18.471Z,103923.09
2019-02-25T07:00:53.450Z,103923.81
2019-02-25T07:03:28.622Z,103923.09
2019-02-25T07:06:17.464Z,103916.27
2019-02-25T07:09:05.965Z,103922.64
2019-02-25T07:12:02.652Z,103923.16
2019-02-25T07:14:49.510Z,103929.31
2019-02-25T07:17:43.360Z,103930.74
2019-02-25T07:20:28.615Z,103935.48
2019-02-25T07:23:09.196Z,103937.38
2019-02-25T07:25:54.207Z,103938.23
2019-02-25T07:28:51.826Z,103938.60
2019-02-25T07:31:41.679Z,103939.64
2019-02-25T07:34:38.461Z,103941.70
2019-02-25T07:37:25.923Z,103946.42
2019-02-25T07:40:23.695Z,103949.25
2019-02-25T07:43:12.965Z,103954.82
2019-02-25T07:46:11.573Z,103959.14
2019-02-25T07:49:05.711Z,103961.63
2019-02-25T07:51:57.829Z,103963.23
2019-02-25T07:54:51.640Z,103969.30
2019-02-25T07:58:04.542Z,103964.55
2019-02-25T08:00:49.397Z,103969.44
2019-02-25T08:03:30.970Z,103975.86
2019-02-25T08:06:20.310Z,103978.95
2019-02-25T08:09:05.003Z,103981.66
2019-02-25T08:12:06.541Z,103970.59
2019-02-25T08:15:03.049Z,103969.17
2019-02-25T08:17:48.676Z,103981.77
2019-02-25T08:20:45.636Z,103982.34
2019-02-25T08:23:38.495Z,103981.67
2019-02-25T08:26:47.104Z,103976.16
2019-02-25T08:29:53.088Z,103970.87
2019-02-25T08:32:52.522Z,103974.78
2019-02-25T08:36:39.673Z,103975.07
2019-02-25T08:39:24.409Z,103971.48
2019-02-25T08:42:23.731Z,103978.84
2019-02-25T08:45:07.283Z,103978.86
2019-02-25T08:47:48.864Z,103987.29
2019-02-25T08:50:25.671Z,103981.03
2019-02-25T08:53:00.438Z,103980.83
2019-02-25T08:55:35.453Z,103981.05
2019-02-25T08:58:10.488Z,103980.97
2019-02-25T09:00:45.320Z,103980.68
2019-02-25T09:03:20.409Z,103976.09
2019-02-25T09:05:55.232Z,103975.02
2019-02-25T09:08:30.172Z,103968.70
2019-02-25T09:11:13.755Z,103972.89
2019-02-25T09:13:42.485Z,103967.35
2019-02-25T09:16:17.402Z,103962.66
2019-02-25T09:18:52.296Z,103965.76
2019-02-25T09:21:31.842Z,103966.42
2019-02-25T09:24:03.990Z,103969.02
2019-02-25T09:26:42.638Z,103963.77
2019-02-25T09:29:17.515Z,103966.83
2019-02-25T09:31:52.494Z,103954.50
2019-02-25T09:34:27.384Z,103956.62
2019-02-25T09:37:02.372Z,103957.38
2019-02-25T09:39:37.328Z,103944.36
2019-02-25T09:42:13.814Z,103932.53
2019-02-25T09:44:48.592Z,103935.73
2019-02-25T09:47:23.497Z,103935.77
2019-02-25T09:49:58.401Z,103934.45
2019-02-25T09:52:34.228Z,103937.50
2019-02-25T09:55:11.013Z,103925.13
2019-02-25T09:57:45.809Z,103923.14
2019-02-25T10:00:20.877Z,103919.86
2019-02-25T10:02:55.796Z,103922.77
2019-02-25T10:05:30.876Z,103914.74
2019-02-25T10:08:06.222Z,103907.08
2019-02-25T10:10:41.157Z,103903.86
2019-02-25T10:13:16.066Z,103904.74
2019-02-25T10:15:50.990Z,103893.28
2019-02-25T10:18:25.890Z,103884.09
2019-02-25T10:21:00.678Z,103881.30
2019-02-25T10:23:36.583Z,103867.63
2019-02-25T10:26:11.516Z,103865.96
2019-02-25T10:28:46.455Z,103866.22
2019-02-25T10:31:21.366Z,103852.64
2019-02-25T10:33:56.274Z,103843.02
2019-02-25T10:36:31.339Z,103843.69
2019-02-25T10:39:12.910Z,103850.53
2019-02-25T10:41:48.078Z,103848.48
2019-02-25T10:44:23.124Z,103841.96
2019-02-25T10:46:58.026Z,103839.72
2019-02-25T10:49:33.764Z,103845.53
2019-02-25T10:52:10.712Z,103831.74
2019-02-25T10:54:45.436Z,103822.33
2019-02-25T10:57:26.439Z,103824.43
2019-02-25T11:00:00.612Z,103834.46
2019-02-25T11:02:44.181Z,103826.35
2019-02-25T11:05:15.426Z,103830.37
2019-02-25T11:07:51.170Z,103825.53
2019-02-25T11:10:33.596Z,103825.58
2019-02-25T11:13:08.404Z,103827.70
2019-02-25T11:15:44.538Z,103826.55
2019-02-25T11:18:21.935Z,103821.80
2019-02-25T11:20:56.672Z,103829.94
2019-02-25T11:23:31.574Z,103838.95
2019-02-25T11:26:06.588Z,103842.80
2019-02-25T11:28:43.701Z,103838.48
2019-02-25T11:31:22.138Z,103844.22
2019-02-25T11:33:56.271Z,103839.53
2019-02-25T11:36:31.284Z,103832.63
2019-02-25T11:39:09.449Z,103833.66
2019-02-25T11:41:44.318Z,103828.21
2019-02-25T11:44:21.098Z,103825.37
2019-02-25T11:46:55.858Z,103823.56
2019-02-25T11:49:30.785Z,103824.88
2019-02-25T11:52:05.776Z,103817.19
2019-02-25T11:54:40.989Z,103821.82
2019-02-25T11:57:15.981Z,103813.11
2019-02-25T11:59:51.057Z,103808.85
2019-02-25T12:02:26.204Z,103807.11
2019-02-25T12:05:01.230Z,103803.63
2019-02-25T12:07:36.091Z,103814.31
2019-02-25T12:10:11.230Z,103809.91
2019-02-25T12:12:46.277Z,103811.53
2019-02-25T12:15:21.288Z,103805.63
2019-02-25T12:17:56.254Z,103807.30
2019-02-25T12:20:31.192Z,103806.44
2019-02-25T12:23:06.190Z,103807.59
2019-02-25T12:25:41.141Z,103803.95
2019-02-25T12:28:16.021Z,103800.84
2019-02-25T12:30:51.002Z,103796.02
2019-02-25T12:33:26.772Z,103794.83
2019-02-25T12:36:03.370Z,103787.17
2019-02-25T12:38:38.395Z,103781.63
2019-02-25T12:41:13.319Z,103788.61
2019-02-25T12:43:48.211Z,103791.77
2019-02-25T12:46:23.112Z,103797.77
2019-02-25T12:48:58.002Z,103793.87
2019-02-25T12:51:33.020Z,103790.72
2019-02-25T12:54:08.179Z,103784.67
2019-02-25T12:56:45.810Z,103783.33
2019-02-25T12:59:20.703Z,103780.24
2019-02-25T13:01:55.724Z,103776.24
2019-02-25T13:04:30.750Z,103781.98
2019-02-25T13:07:05.644Z,103770.67
2019-02-25T13:09:40.574Z,103772.86
2019-02-25T13:12:15.470Z,103772.63
2019-02-25T13:14:50.387Z,103775.08
2019-02-25T13:17:25.220Z,103782.12
2019-02-25T13:20:00.277Z,103781.39
2019-02-25T13:22:35.339Z,103777.08
2019-02-25T13:25:16.855Z,103767.47
2019-02-25T13:27:54.330Z,103760.32
2019-02-25T13:30:29.464Z,103756.88
2019-02-25T13:33:04.481Z,103748.72
2019-02-25T13:35:39.513Z,103746.21
2019-02-25T13:38:14.468Z,103731.31
2019-02-25T13:40:49.364Z,103731.73
2019-02-25T13:43:24.338Z,103731.06
2019-02-25T13:45:59.459Z,103731.72
2019-02-25T13:48:34.520Z,103739.41
2019-02-25T13:51:09.480Z,103738.78
2019-02-25T13:53:44.424Z,103730.26
2019-02-25T13:56:19.465Z,103730.58
2019-02-25T13:58:54.949Z,103725.29
2019-02-25T14:01:30.764Z,103720.34
2019-02-25T14:04:05.601Z,103720.34
2019-02-25T14:06:40.575Z,103715.66
2019-02-25T14:09:15.542Z,103720.08
2019-02-25T14:11:52.016Z,103728.25
2019-02-25T14:14:26.966Z,103718.42
2019-02-25T14:17:01.876Z,103724.46
2019-02-25T14:19:36.718Z,103731.80
2019-02-25T14:22:11.616Z,103729.73
2019-02-25T14:24:46.540Z,103726.62
2019-02-25T14:27:21.494Z,103732.91
2019-02-25T14:29:56.313Z,103733.30
2019-02-25T14:32:31.405Z,103726.62
2019-02-25T14:35:07.866Z,103723.02
2019-02-25T14:37:43.167Z,103720.58
2019-02-25T14:40:21.635Z,103718.47
2019-02-25T14:42:57.449Z,103716.66
2019-02-25T14:45:34.295Z,103706.83
2019-02-25T14:48:10.771Z,103704.02
2019-02-25T14:50:46.374Z,103702.94
2019-02-25T14:53:21.383Z,103709.65
2019-02-25T14:55:58.399Z,103705.00
2019-02-25T14:58:35.562Z,103704.59
2019-02-25T15:01:09.791Z,103698.02
2019-02-25T15:03:44.682Z,103693.38
2019-02-25T15:06:19.644Z,103692.89
2019-02-25T15:08:54.553Z,103691.35
2019-02-25T15:11:29.611Z,103684.42
2019-02-25T15:14:05.926Z,103670.93
2019-02-25T15:16:41.284Z,103667.53
2019-02-25T15:19:17.059Z,103663.98
2019-02-25T15:21:54.110Z,103661.13
2019-02-25T15:24:28.711Z,103655.87
2019-02-25T15:27:04.490Z,103663.31
2019-02-25T15:29:42.138Z,103660.73
2019-02-25T15:32:17.205Z,103663.19
2019-02-25T15:34:52.835Z,103666.59
2019-02-25T15:37:29.259Z,103662.14
2019-02-25T15:40:16.007Z,103656.25
2019-02-25T15:43:02.828Z,103653.66
2019-02-25T15:45:40.674Z,103654.03
2019-02-25T15:48:18.504Z,103653.31
2019-02-25T15:50:57.958Z,103651.62
2019-02-25T15:53:33.362Z,103662.00
2019-02-25T15:56:10.659Z,103659.67
2019-02-25T15:58:47.388Z,103658.98
2019-02-25T16:01:22.312Z,103660.62
2019-02-25T16:04:02.258Z,103656.39
2019-02-25T16:06:35.579Z,103656.41
2019-02-25T16:09:13.140Z,103660.06
2019-02-25T16:11:48.072Z,103663.01
2019-02-25T16:14:23.908Z,103666.48
2019-02-25T16:16:59.950Z,103668.11
2019-02-25T16:19:41.369Z,103670.84
2019-02-25T16:22:11.855Z,103671.80
2019-02-25T16:24:47.132Z,103672.47
2019-02-25T16:27:23.242Z,103682.74
2019-02-25T16:30:00.250Z,103679.18
2019-02-25T16:32:40.123Z,103674.95
2019-02-25T16:35:15.717Z,103668.97
2019-02-25T16:37:53.096Z,103669.08
2019-02-25T16:40:29.160Z,103675.20
2019-02-25T16:43:05.271Z,103672.62
2019-02-25T16:45:42.587Z,103675.26
2019-02-25T16:48:18.862Z,103672.75
2019-02-25T16:50:54.147Z,103665.38
2019-02-25T16:53:29.707Z,103672.05
2019-02-25T16:56:05.751Z,103675.05
2019-02-25T16:58:42.662Z,103672.27
2019-02-25T17:01:19.986Z,103680.05
2019-02-25T17:03:54.983Z,103686.03
2019-02-25T17:06:30.843Z,103691.58
2019-02-25T17:09:11.785Z,103692.33
2019-02-25T17:11:47.246Z,103697.34
2019-02-25T17:14:40.075Z,103703.80
2019-02-25T17:17:59.110Z,103701.76
2019-02-25T17:20:35.376Z,103700.67
2019-02-25T17:23:10.415Z,103710.67
2019-02-25T17:25:45.307Z,103706.45
2019-02-25T17:28:20.825Z,103707.95
2019-02-25T17:30:56.796Z,103711.23
2019-02-25T17:33:34.506Z,103714.89
2019-02-25T17:36:12.411Z,103719.16
2019-02-25T17:38:49.620Z,103711.75
2019-02-25T17:41:24.300Z,103714.21
2019-02-25T17:44:01.324Z,103712.07
2019-02-25T17:49:38.971Z,103717.29
2019-02-25T17:52:16.365Z,103714.80
2019-02-25T17:55:06.359Z,103713.84
2019-02-25T17:57:42.005Z,103703.36
2019-02-25T18:00:32.599Z,103702.98
2019-02-25T18:03:09.598Z,103705.25
2019-02-25T18:05:44.717Z,103704.86
2019-02-25T18:08:20.196Z,103702.73
2019-02-25T18:10:54.999Z,103704.41
2019-02-25T18:13:30.659Z,103698.87
2019-02-25T18:16:08.549Z,103699.33
2019-02-25T18:18:45.101Z,103695.48
2019-02-25T18:21:20.860Z,103689.57
2019-02-25T18:24:00.041Z,103683.47
2019-02-25T18:26:35.394Z,103677.52
2019-02-25T18:29:11.717Z,103672.06
2019-02-25T18:31:47.123Z,103671.20
2019-02-25T18:34:22.149Z,103670.50
2019-02-25T18:36:57.072Z,103672.41
2019-02-25T18:39:32.155Z,103678.33
2019-02-25T18:42:09.202Z,103676.95
2019-02-25T18:44:45.350Z,103679.19
2019-02-25T18:47:23.462Z,103681.41
2019-02-25T18:50:00.956Z,103678.80
2019-02-25T18:52:38.520Z,103681.73
2019-02-25T18:55:16.013Z,103679.53
2019-02-25T18:57:52.314Z,103679.19
2019-02-25T19:00:40.134Z,103685.25
2019-02-25T19:03:15.219Z,103689.17
2019-02-25T19:05:52.815Z,103695.67
2019-02-25T19:08:29.053Z,103695.66
2019-02-25T19:11:04.318Z,103701.06
2019-02-25T19:13:39.443Z,103707.03
2019-02-25T19:16:15.848Z,103707.45
2019-02-25T19:18:51.311Z,103711.05
2019-02-25T19:21:29.533Z,103714.22
2019-02-25T19:24:05.557Z,103700.01
2019-02-25T19:26:43.008Z,103698.81
2019-02-25T19:29:25.864Z,103697.75
2019-02-25T19:32:01.837Z,103711.35
2019-02-25T19:34:39.743Z,103703.21
2019-02-25T19:37:15.494Z,103705.98
2019-02-25T19:39:50.735Z,103709.22
2019-02-25T19:42:26.967Z,103712.24
2019-02-25T19:45:06.351Z,103713.02
2019-02-25T19:47:43.217Z,103713.97
2019-02-25T19:50:18.865Z,103715.81
2019-02-25T19:52:54.922Z,103706.91
2019-02-25T19:55:29.967Z,103712.69
2019-02-25T19:58:05.243Z,103710.09
2019-02-25T20:00:40.153Z,103711.93
2019-02-25T20:03:15.246Z,103706.31
2019-02-25T20:05:52.082Z,103709.45
2019-02-25T20:08:27.139Z,103711.06
2019-02-25T20:11:02.159Z,103709.36
2019-02-25T20:13:37.475Z,103698.98
2019-02-25T20:16:15.751Z,103696.01
2019-02-25T20:18:49.115Z,103697.01
2019-02-25T20:21:24.602Z,103701.11
2019-02-25T20:24:00.888Z,103705.75
2019-02-25T20:26:36.370Z,103708.17
2019-02-25T20:29:12.739Z,103706.02
2019-02-25T20:31:49.618Z,103713.72
2019-02-25T20:34:25.892Z,103718.70
2019-02-25T20:37:02.282Z,103711.05
2019-02-25T20:39:38.642Z,103715.72
2019-02-25T20:42:17.301Z,103714.87
2019-02-25T20:44:52.973Z,103712.73
2019-02-25T20:47:28.629Z,103719.31
2019-02-25T20:50:05.390Z,103721.44
2019-02-25T20:52:40.885Z,103721.25
2019-02-25T20:55:17.814Z,103719.20
2019-02-25T20:57:54.390Z,103718.91
2019-02-25T21:00:29.702Z,103714.64
2019-02-25T21:03:04.826Z,103715.66
2019-02-25T21:05:39.927Z,103715.40
2019-02-25T21:08:19.157Z,103703.14
2019-02-25T21:10:54.632Z,103699.55
2019-02-25T21:13:31.262Z,103690.58
2019-02-25T21:16:09.812Z,103690.20
2019-02-25T21:18:44.383Z,103691.00
2019-02-25T21:21:20.347Z,103690.16
2019-02-25T21:23:55.363Z,103687.06
2019-02-25T21:26:31.559Z,103688.86
2019-02-25T21:29:09.588Z,103695.56
2019-02-25T21:31:45.730Z,103690.36
2019-02-25T21:34:24.111Z,103689.56
2019-02-25T21:36:58.541Z,103690.64
2019-02-25T21:39:36.146Z,103687.00
2019-02-25T21:42:14.755Z,103680.94
2019-02-25T21:44:48.629Z,103685.62
2019-02-25T21:47:28.715Z,103677.16
2019-02-25T21:50:11.881Z,103670.67
2019-02-25T21:52:47.973Z,103670.21
2019-02-25T21:55:25.110Z,103667.25
2019-02-25T21:58:02.111Z,103671.66
2019-02-25T22:00:40.218Z,103671.84
2019-02-25T22:03:15.677Z,103672.27
2019-02-25T22:05:53.251Z,103675.27
2019-02-25T22:08:29.049Z,103662.33
2019-02-25T22:11:12.382Z,103668.62
2019-02-25T22:13:42.042Z,103660.34
2019-02-25T22:16:17.081Z,103653.72
2019-02-25T22:18:52.670Z,103648.06
2019-02-25T22:21:28.607Z,103639.59
2019-02-25T22:24:05.393Z,103636.48
2019-02-25T22:26:40.290Z,103637.16
2019-02-25T22:29:15.224Z,103635.81
2019-02-25T22:31:50.206Z,103638.81
2019-02-25T22:34:25.453Z,103637.93
2019-02-25T22:37:02.414Z,103642.38
2019-02-25T22:39:38.060Z,103641.54
2019-02-25T22:42:13.862Z,103633.14
2019-02-25T22:44:49.667Z,103636.11
2019-02-25T22:47:25.539Z,103633.39
2019-02-25T22:50:00.584Z,103631.93
2019-02-25T22:52:37.317Z,103630.19
2019-02-25T22:55:14.851Z,103622.44
2019-02-25T22:57:53.459Z,103623.90
2019-02-25T23:00:31.218Z,103621.31
2019-02-25T23:03:11.088Z,103614.09
2019-02-25T23:05:45.987Z,103611.45
2019-02-25T23:08:23.423Z,103616.64
2019-02-25T23:10:58.010Z,103613.75
2019-02-25T23:13:33.092Z,103615.98
2019-02-25T23:16:08.320Z,103626.03
2019-02-25T23:18:43.306Z,103629.68
2019-02-25T23:21:23.915Z,103634.56
2019-02-25T23:23:55.857Z,103640.99
2019-02-25T23:26:31.461Z,103632.52
2019-02-25T23:29:06.517Z,103628.41
2019-02-25T23:31:43.421Z,103625.22
2019-02-25T23:34:20.328Z,103625.00
2019-02-25T23:36:56.204Z,103624.73
2019-02-25T23:39:32.389Z,103627.48
2019-02-25T23:42:09.245Z,103613.78
2019-02-25T23:44:44.784Z,103618.88
2019-02-25T23:47:19.632Z,103623.65
2019-02-25T23:49:55.466Z,103625.30
2019-02-25T23:52:33.647Z,103629.14
2019-02-25T23:55:12.236Z,103629.83
2019-02-25T23:57:45.948Z,103618.67
